createdAt,value
2018-06-05T00:00:12.143Z,101201.50
2018-06-05T00:02:40.204Z,101197.23
2018-06-05T00:05:08.264Z,101196.14
2018-06-05T00:07:36.324Z,101190.88
2018-06-05T00:10:04.501Z,101197.80
2018-06-05T00:12:32.543Z,101194.48
2018-06-05T00:15:00.604Z,101187.65
2018-06-05T00:17:28.688Z,101192.66
2018-06-05T00:19:56.748Z,101189.63
2018-06-05T00:22:24.803Z,101193.03
2018-06-05T00:24:52.876Z,101193.81
2018-06-05T00:27:20.925Z,101192.58
2018-06-05T00:29:48.981Z,101185.95
2018-06-05T00:32:17.068Z,101188.53
2018-06-05T00:34:45.119Z,101191.26
2018-06-05T00:37:13.177Z,101189.42
2018-06-05T00:39:41.239Z,101180.50
2018-06-05T00:42:09.290Z,101188.80
2018-06-05T00:44:37.340Z,101187.20
2018-06-05T00:47:05.432Z,101190.13
2018-06-05T00:49:33.488Z,101188.55
2018-06-05T00:52:09.193Z,101190.45
2018-06-05T00:54:37.236Z,101188.17
2018-06-05T00:57:05.373Z,101191.78
2018-06-05T00:59:33.460Z,101195.15
2018-06-05T01:02:01.521Z,101193.31
2018-06-05T01:04:29.567Z,101199.13
2018-06-05T01:06:57.620Z,101193.75
2018-06-05T01:09:25.660Z,101189.56
2018-06-05T01:11:53.718Z,101196.98
2018-06-05T01:14:21.750Z,101193.86
2018-06-05T01:16:49.820Z,101193.86
2018-06-05T01:19:17.908Z,101191.27
2018-06-05T01:21:45.970Z,101196.48
2018-06-05T01:24:14.004Z,101188.92
2018-06-05T01:26:42.056Z,101191.14
2018-06-05T01:29:10.089Z,101193.56
2018-06-05T01:31:38.140Z,101191.21
2018-06-05T01:34:06.196Z,101188.42
2018-06-05T01:36:34.264Z,101186.82
2018-06-05T01:39:02.352Z,101189.23
2018-06-05T01:41:30.395Z,101187.03
2018-06-05T01:43:58.447Z,101192.23
2018-06-05T01:46:26.502Z,101194.31
2018-06-05T01:48:54.564Z,101191.97
2018-06-05T01:51:22.616Z,101191.59
2018-06-05T01:53:50.689Z,101189.99
2018-06-05T01:56:18.736Z,101193.13
2018-06-05T01:58:46.792Z,101187.91
2018-06-05T02:01:14.840Z,101192.47
2018-06-05T02:03:42.891Z,101191.89
2018-06-05T02:06:10.939Z,101193.05
2018-06-05T02:08:38.968Z,101186.89
2018-06-05T02:11:07.033Z,101192.92
2018-06-05T02:13:35.068Z,101189.11
2018-06-05T02:16:03.125Z,101176.31
2018-06-05T02:18:31.163Z,101177.57
2018-06-05T02:20:59.216Z,101178.02
2018-06-05T02:23:27.273Z,101179.68
2018-06-05T02:25:55.328Z,101189.95
2018-06-05T02:28:23.375Z,101181.58
2018-06-05T02:30:51.434Z,101185.42
2018-06-05T02:33:19.477Z,101182.84
2018-06-05T02:35:47.528Z,101185.50
2018-06-05T02:38:15.560Z,101179.34
2018-06-05T02:40:43.730Z,101178.52
2018-06-05T02:43:11.784Z,101173.76
2018-06-05T02:45:39.840Z,101180.73
2018-06-05T02:48:07.912Z,101175.16
2018-06-05T02:50:35.964Z,101179.34
2018-06-05T02:53:04.028Z,101184.55
2018-06-05T02:55:32.092Z,101175.94
2018-06-05T02:58:00.132Z,101175.73
2018-06-05T03:00:28.173Z,101179.92
2018-06-05T03:02:56.216Z,101182.70
2018-06-05T03:05:24.272Z,101179.61
2018-06-05T03:07:52.307Z,101186.37
2018-06-05T03:10:20.365Z,101187.91
2018-06-05T03:12:48.416Z,101181.88
2018-06-05T03:15:16.461Z,101190.45
2018-06-05T03:17:44.519Z,101197.44
2018-06-05T03:20:12.580Z,101192.09
2018-06-05T03:22:40.661Z,101193.48
2018-06-05T03:25:08.711Z,101191.52
2018-06-05T03:27:36.763Z,101189.51
2018-06-05T03:30:05.245Z,101184.88
2018-06-05T03:32:33.300Z,101193.63
2018-06-05T03:35:01.358Z,101185.99
2018-06-05T03:37:29.398Z,101186.70
2018-06-05T03:39:57.448Z,101177.52
2018-06-05T03:42:25.498Z,101184.36
2018-06-05T03:44:53.557Z,101184.23
2018-06-05T03:47:21.620Z,101187.09
2018-06-05T03:49:49.656Z,101181.95
2018-06-05T03:52:17.716Z,101179.73
2018-06-05T03:54:45.758Z,101175.86
2018-06-05T03:57:13.816Z,101183.98
2018-06-05T03:59:41.865Z,101182.83
2018-06-05T04:02:09.921Z,101180.62
2018-06-05T04:04:37.955Z,101187.59
2018-06-05T04:07:06.016Z,101189.80
2018-06-05T04:09:34.087Z,101192.80
2018-06-05T04:12:02.144Z,101190.63
2018-06-05T04:14:30.196Z,101197.05
2018-06-05T04:16:58.280Z,101199.84
2018-06-05T04:19:26.340Z,101206.10
2018-06-05T04:21:54.409Z,101202.57
2018-06-05T04:24:22.455Z,101208.31
2018-06-05T04:26:50.518Z,101215.87
2018-06-05T04:29:18.563Z,101211.55
2018-06-05T04:31:46.622Z,101206.17
2018-06-05T04:34:14.672Z,101211.62
2018-06-05T04:36:42.725Z,101216.46
2018-06-05T04:39:10.765Z,101220.44
2018-06-05T04:41:38.825Z,101218.80
2018-06-05T04:44:06.875Z,101218.28
2018-06-05T04:46:34.947Z,101230.69
2018-06-05T04:49:02.979Z,101227.53
2018-06-05T04:51:31.023Z,101226.39
2018-06-05T04:53:59.055Z,101224.05
2018-06-05T04:56:27.111Z,101230.74
2018-06-05T04:58:55.132Z,101232.14
2018-06-05T05:01:23.184Z,101235.00
2018-06-05T05:03:51.231Z,101239.95
2018-06-05T05:06:19.303Z,101244.08
2018-06-05T05:08:47.379Z,101241.23
2018-06-05T05:11:15.464Z,101245.87
2018-06-05T05:13:43.539Z,101245.12
2018-06-05T05:16:11.579Z,101243.02
2018-06-05T05:18:39.651Z,101257.70
2018-06-05T05:21:07.705Z,101251.78
2018-06-05T05:23:35.741Z,101250.96
2018-06-05T05:26:03.808Z,101247.42
2018-06-05T05:28:31.843Z,101254.27
2018-06-05T05:30:59.892Z,101254.34
2018-06-05T05:33:27.972Z,101262.89
2018-06-05T05:35:56.015Z,101267.73
2018-06-05T05:38:24.073Z,101266.58
2018-06-05T05:40:52.157Z,101266.34
2018-06-05T05:43:20.203Z,101261.88
2018-06-05T05:45:48.256Z,101267.33
2018-06-05T05:48:16.336Z,101271.59
2018-06-05T05:50:44.400Z,101272.27
2018-06-05T05:53:12.464Z,101275.98
2018-06-05T05:55:40.506Z,101272.16
2018-06-05T05:58:08.552Z,101273.36
2018-06-05T06:00:36.596Z,101272.41
2018-06-05T06:03:04.676Z,101271.69
2018-06-05T06:05:32.740Z,101281.91
2018-06-05T06:08:00.780Z,101276.19
2018-06-05T06:10:28.844Z,101276.12
2018-06-05T06:12:56.904Z,101283.84
2018-06-05T06:15:24.959Z,101289.81
2018-06-05T06:17:53.028Z,101297.61
2018-06-05T06:20:21.123Z,101295.00
2018-06-05T06:22:49.185Z,101299.66
2018-06-05T06:25:17.229Z,101297.66
2018-06-05T06:27:45.302Z,101297.87
2018-06-05T06:30:13.353Z,101296.83
2018-06-05T06:32:41.412Z,101302.05
2018-06-05T06:35:09.449Z,101299.39
2018-06-05T06:37:37.496Z,101299.50
2018-06-05T06:40:05.601Z,101295.88
2018-06-05T06:42:33.683Z,101293.86
2018-06-05T06:45:01.733Z,101296.08
2018-06-05T06:47:29.788Z,101301.27
2018-06-05T06:49:57.863Z,101299.80
2018-06-05T06:52:25.936Z,101310.14
2018-06-05T06:54:53.983Z,101304.93
2018-06-05T06:57:22.039Z,101312.19
2018-06-05T06:59:50.079Z,101312.95
2018-06-05T07:02:19.111Z,101304.39
2018-06-05T07:04:47.165Z,101308.66
2018-06-05T07:07:15.232Z,101309.94
2018-06-05T07:09:43.292Z,101312.27
2018-06-05T07:12:11.390Z,101315.99
2018-06-05T07:14:39.402Z,101314.89
2018-06-05T07:17:07.865Z,101309.06
2018-06-05T07:19:35.904Z,101310.72
2018-06-05T07:22:03.992Z,101313.84
2018-06-05T07:24:32.062Z,101314.81
2018-06-05T07:27:00.136Z,101321.69
2018-06-05T07:29:28.203Z,101316.67
2018-06-05T07:31:56.299Z,101318.51
2018-06-05T07:34:24.360Z,101318.69
2018-06-05T07:36:52.425Z,101324.48
2018-06-05T07:39:20.482Z,101322.95
2018-06-05T07:41:48.572Z,101313.17
2018-06-05T07:44:16.655Z,101320.08
2018-06-05T07:46:44.709Z,101313.25
2018-06-05T07:49:12.776Z,101316.48
2018-06-05T07:51:40.840Z,101315.66
2018-06-05T07:54:08.909Z,101318.68
2018-06-05T07:56:36.981Z,101316.27
2018-06-05T07:59:05.052Z,101322.92
2018-06-05T08:01:33.116Z,101316.67
2018-06-05T08:04:01.191Z,101333.38
2018-06-05T08:06:29.254Z,101326.55
2018-06-05T08:08:57.326Z,101320.08
2018-06-05T08:11:25.371Z,101322.33
2018-06-05T08:13:53.435Z,101316.25
2018-06-05T08:16:21.508Z,101312.98
2018-06-05T08:18:49.609Z,101307.69
2018-06-05T08:21:17.676Z,101306.20
2018-06-05T08:23:45.743Z,101301.03
2018-06-05T08:26:13.788Z,101295.90
2018-06-05T08:28:41.876Z,101302.83
2018-06-05T08:31:10.000Z,101300.49
2018-06-05T08:33:38.065Z,101297.59
2018-06-05T08:36:06.127Z,101304.66
2018-06-05T08:38:35.129Z,101305.99
2018-06-05T08:41:03.188Z,101304.67
2018-06-05T08:43:31.268Z,101301.25
2018-06-05T08:45:59.316Z,101305.97
2018-06-05T08:48:27.387Z,101307.02
2018-06-05T08:50:55.426Z,101305.57
2018-06-05T08:53:23.488Z,101309.06
2018-06-05T08:55:51.596Z,101312.36
2018-06-05T08:58:19.659Z,101318.13
2018-06-05T09:00:47.729Z,101312.83
2018-06-05T09:03:15.812Z,101313.28
2018-06-05T09:05:43.868Z,101311.37
2018-06-05T09:08:11.972Z,101312.23
2018-06-05T09:10:40.020Z,101322.55
2018-06-05T09:13:08.084Z,101319.27
2018-06-05T09:15:36.132Z,101329.22
2018-06-05T09:18:04.217Z,101330.11
2018-06-05T09:20:32.273Z,101334.09
2018-06-05T09:23:00.391Z,101333.23
2018-06-05T09:25:28.456Z,101330.11
2018-06-05T09:27:56.568Z,101334.05
2018-06-05T09:30:24.633Z,101328.70
2018-06-05T09:32:52.681Z,101335.30
2018-06-05T09:35:20.763Z,101331.31
2018-06-05T09:37:48.817Z,101330.42
2018-06-05T09:40:16.881Z,101332.23
2018-06-05T09:42:44.953Z,101336.25
2018-06-05T09:45:13.092Z,101338.30
2018-06-05T09:47:41.174Z,101344.06
2018-06-05T09:50:09.251Z,101336.14
2018-06-05T09:52:37.296Z,101331.02
2018-06-05T09:55:05.359Z,101330.77
2018-06-05T09:57:33.479Z,101330.55
2018-06-05T10:00:01.512Z,101332.98
2018-06-05T10:02:29.576Z,101331.87
2018-06-05T10:04:57.638Z,101327.75
2018-06-05T10:07:25.718Z,101329.81
2018-06-05T10:09:53.795Z,101332.33
2018-06-05T10:12:21.871Z,101330.85
2018-06-05T10:14:50.000Z,101330.85
2018-06-05T10:17:18.104Z,101332.34
2018-06-05T10:19:46.188Z,101332.13
2018-06-05T10:22:14.217Z,101324.80
2018-06-05T10:24:42.271Z,101323.47
2018-06-05T10:27:10.484Z,101319.92
2018-06-05T10:29:38.524Z,101320.16
2018-06-05T10:32:06.608Z,101325.45
2018-06-05T10:34:34.700Z,101323.90
2018-06-05T10:37:02.726Z,101325.83
2018-06-05T10:39:30.784Z,101324.16
2018-06-05T10:41:58.893Z,101322.43
2018-06-05T10:44:26.974Z,101321.67
2018-06-05T10:46:55.033Z,101318.09
2018-06-05T10:49:23.112Z,101320.88
2018-06-05T10:51:51.183Z,101318.59
2018-06-05T10:54:19.256Z,101328.61
2018-06-05T10:56:47.288Z,101324.43
2018-06-05T10:59:15.391Z,101327.55
2018-06-05T11:01:43.426Z,101330.16
2018-06-05T11:04:11.580Z,101320.02
2018-06-05T11:06:39.617Z,101318.08
2018-06-05T11:09:08.209Z,101317.70
2018-06-05T11:11:36.255Z,101315.27
2018-06-05T11:14:04.328Z,101318.09
2018-06-05T11:16:32.372Z,101315.26
2018-06-05T11:19:00.564Z,101307.50
2018-06-05T11:21:28.636Z,101313.52
2018-06-05T11:23:56.681Z,101317.97
2018-06-05T11:26:24.745Z,101307.22
2018-06-05T11:28:52.848Z,101307.47
2018-06-05T11:31:20.911Z,101307.11
2018-06-05T11:33:48.999Z,101305.65
2018-06-05T11:36:17.062Z,101308.95
2018-06-05T11:38:45.120Z,101304.25
2018-06-05T11:41:13.174Z,101300.82
2018-06-05T11:43:41.231Z,101298.64
2018-06-05T11:46:09.402Z,101296.80
2018-06-05T11:48:37.503Z,101302.08
2018-06-05T11:51:05.646Z,101300.58
2018-06-05T11:53:33.752Z,101303.77
2018-06-05T11:56:01.826Z,101304.41
2018-06-05T11:58:29.909Z,101296.57
2018-06-05T12:00:57.974Z,101293.69
2018-06-05T12:03:26.034Z,101293.24
2018-06-05T12:05:54.092Z,101299.14
2018-06-05T12:08:22.157Z,101299.61
2018-06-05T12:10:50.289Z,101291.16
2018-06-05T12:13:18.356Z,101286.93
2018-06-05T12:15:46.459Z,101296.12
2018-06-05T12:18:14.568Z,101292.79
2018-06-05T12:20:42.643Z,101281.93
2018-06-05T12:23:10.720Z,101282.45
2018-06-05T12:25:38.799Z,101278.96
2018-06-05T12:28:06.864Z,101278.86
2018-06-05T12:30:34.944Z,101277.41
2018-06-05T12:33:03.003Z,101276.79
2018-06-05T12:35:31.076Z,101274.70
2018-06-05T12:37:59.120Z,101277.11
2018-06-05T12:40:27.238Z,101271.98
2018-06-05T12:42:55.242Z,101268.48
2018-06-05T12:45:23.308Z,101275.82
2018-06-05T12:47:51.351Z,101268.14
2018-06-05T12:50:19.449Z,101269.43
2018-06-05T12:52:47.525Z,101266.12
2018-06-05T12:55:15.590Z,101267.64
2018-06-05T12:57:43.636Z,101263.34
2018-06-05T13:00:11.704Z,101265.91
2018-06-05T13:02:39.764Z,101260.06
2018-06-05T13:05:07.814Z,101257.50
2018-06-05T13:07:35.876Z,101260.68
2018-06-05T13:10:03.977Z,101254.17
2018-06-05T13:12:32.044Z,101246.98
2018-06-05T13:15:00.133Z,101246.84
2018-06-05T13:17:28.259Z,101246.53
2018-06-05T13:19:56.267Z,101244.94
2018-06-05T13:22:24.347Z,101246.05
2018-06-05T13:24:52.397Z,101237.45
2018-06-05T13:27:20.456Z,101237.45
2018-06-05T13:29:48.517Z,101233.63
2018-06-05T13:32:16.588Z,101233.41
2018-06-05T13:34:44.644Z,101239.00
2018-06-05T13:37:12.715Z,101238.05
2018-06-05T13:39:40.764Z,101234.53
2018-06-05T13:42:08.857Z,101233.09
2018-06-05T13:44:36.917Z,101232.15
2018-06-05T13:47:05.092Z,101227.84
2018-06-05T13:49:33.156Z,101226.09
2018-06-05T13:52:01.221Z,101234.19
2018-06-05T13:54:29.293Z,101233.02
2018-06-05T13:56:57.357Z,101226.03
2018-06-05T13:59:25.414Z,101224.97
2018-06-05T14:01:53.492Z,101223.78
2018-06-05T14:04:21.524Z,101222.52
2018-06-05T14:06:49.631Z,101220.97
2018-06-05T14:09:17.740Z,101219.23
2018-06-05T14:11:45.734Z,101220.20
2018-06-05T14:14:13.843Z,101224.24
2018-06-05T14:16:41.892Z,101223.89
2018-06-05T14:19:09.979Z,101222.14
2018-06-05T14:21:38.056Z,101220.37
2018-06-05T14:24:06.100Z,101214.02
2018-06-05T14:26:34.161Z,101208.28
2018-06-05T14:29:02.255Z,101206.53
2018-06-05T14:31:30.388Z,101208.66
2018-06-05T14:33:58.501Z,101207.03
2018-06-05T14:36:26.548Z,101203.21
2018-06-05T14:38:54.588Z,101202.39
2018-06-05T14:41:22.645Z,101201.62
2018-06-05T14:43:50.682Z,101199.67
2018-06-05T14:46:18.725Z,101192.33
2018-06-05T14:48:46.924Z,101197.25
2018-06-05T14:51:14.956Z,101195.81
2018-06-05T14:53:43.088Z,101192.81
2018-06-05T14:56:11.132Z,101195.67
2018-06-05T14:58:39.183Z,101193.89
2018-06-05T15:01:07.277Z,101201.86
2018-06-05T15:03:35.424Z,101203.06
2018-06-05T15:06:03.516Z,101196.63
2018-06-05T15:08:31.696Z,101208.30
2018-06-05T15:10:59.752Z,101199.70
2018-06-05T15:13:27.808Z,101205.09
2018-06-05T15:15:55.865Z,101197.97
2018-06-05T15:18:23.933Z,101201.22
2018-06-05T15:20:52.039Z,101195.61
2018-06-05T15:23:20.112Z,101194.41
2018-06-05T15:25:48.180Z,101195.78
2018-06-05T15:28:16.246Z,101187.23
2018-06-05T15:30:44.285Z,101184.78
2018-06-05T15:33:12.391Z,101191.38
2018-06-05T15:35:40.460Z,101187.26
2018-06-05T15:38:08.534Z,101189.62
2018-06-05T15:40:36.588Z,101191.18
2018-06-05T15:43:04.696Z,101183.59
2018-06-05T15:45:32.745Z,101192.73
2018-06-05T15:48:00.804Z,101188.70
2018-06-05T15:50:28.855Z,101183.02
2018-06-05T15:52:56.912Z,101186.27
2018-06-05T15:55:24.960Z,101183.77
2018-06-05T15:57:53.013Z,101182.15
2018-06-05T16:00:21.083Z,101180.39
2018-06-05T16:02:49.140Z,101181.56
2018-06-05T16:05:17.897Z,101181.34
2018-06-05T16:07:46.150Z,101184.01
2018-06-05T16:10:14.207Z,101180.81
2018-06-05T16:12:42.280Z,101176.38
2018-06-05T16:15:10.393Z,101181.41
2018-06-05T16:17:38.460Z,101183.58
2018-06-05T16:20:06.534Z,101182.26
2018-06-05T16:22:34.607Z,101177.28
2018-06-05T16:25:03.356Z,101184.68
2018-06-05T16:27:31.408Z,101186.18
2018-06-05T16:29:59.572Z,101181.59
2018-06-05T16:32:28.788Z,101180.39
2018-06-05T16:34:57.064Z,101175.50
2018-06-05T16:37:25.304Z,101172.55
2018-06-05T16:39:53.372Z,101168.47
2018-06-05T16:42:21.448Z,101170.97
2018-06-05T16:44:49.557Z,101170.38
2018-06-05T16:47:17.631Z,101168.41
2018-06-05T16:49:45.724Z,101172.25
2018-06-05T16:52:13.807Z,101169.16
2018-06-05T16:54:41.858Z,101170.80
2018-06-05T16:57:09.905Z,101167.08
2018-06-05T16:59:37.976Z,101161.59
2018-06-05T17:02:06.047Z,101163.89
2018-06-05T17:04:34.236Z,101168.41
2018-06-05T17:07:02.200Z,101170.71
2018-06-05T17:09:30.256Z,101171.52
2018-06-05T17:11:58.336Z,101169.70
2018-06-05T17:14:26.431Z,101173.09
2018-06-05T17:16:54.487Z,101168.63
2018-06-05T17:19:22.582Z,101169.80
2018-06-05T17:21:50.615Z,101170.77
2018-06-05T17:24:18.819Z,101172.73
2018-06-05T17:26:46.875Z,101174.60
2018-06-05T17:29:14.921Z,101179.21
2018-06-05T17:31:43.032Z,101178.41
2018-06-05T17:34:11.118Z,101171.05
2018-06-05T17:36:39.122Z,101180.33
2018-06-05T17:39:07.859Z,101181.00
2018-06-05T17:41:35.905Z,101178.94
2018-06-05T17:44:03.968Z,101183.70
2018-06-05T17:46:32.051Z,101183.77
2018-06-05T17:49:00.244Z,101187.23
2018-06-05T17:51:28.450Z,101187.91
2018-06-05T17:53:56.656Z,101185.45
2018-06-05T17:56:24.764Z,101190.34
2018-06-05T17:58:52.820Z,101194.65
2018-06-05T18:01:20.849Z,101195.02
2018-06-05T18:03:48.940Z,101194.92
2018-06-05T18:06:16.977Z,101198.17
2018-06-05T18:08:45.033Z,101201.58
2018-06-05T18:11:13.072Z,101205.34
2018-06-05T18:13:41.125Z,101210.09
2018-06-05T18:16:09.168Z,101208.67
2018-06-05T18:18:37.239Z,101215.50
2018-06-05T18:21:05.347Z,101215.69
2018-06-05T18:23:33.395Z,101216.09
2018-06-05T18:26:01.453Z,101218.73
2018-06-05T18:28:29.495Z,101219.02
2018-06-05T18:30:57.600Z,101221.77
2018-06-05T18:33:26.489Z,101221.81
2018-06-05T18:35:54.575Z,101223.55
2018-06-05T18:38:22.616Z,101220.48
2018-06-05T18:40:50.914Z,101219.19
2018-06-05T18:43:19.056Z,101225.36
2018-06-05T18:45:47.184Z,101226.52
2018-06-05T18:48:15.233Z,101228.08
2018-06-05T18:50:43.299Z,101226.94
2018-06-05T18:53:11.329Z,101232.70
2018-06-05T18:55:39.392Z,101233.68
2018-06-05T18:58:07.436Z,101235.23
2018-06-05T19:00:35.482Z,101238.06
2018-06-05T19:03:03.524Z,101239.10
2018-06-05T19:05:31.660Z,101237.41
2018-06-05T19:07:59.722Z,101244.41
2018-06-05T19:10:27.768Z,101253.40
2018-06-05T19:12:55.822Z,101256.98
2018-06-05T19:15:23.937Z,101260.84
2018-06-05T19:17:51.972Z,101265.27
2018-06-05T19:20:20.038Z,101272.09
2018-06-05T19:22:48.085Z,101277.27
2018-06-05T19:25:16.156Z,101284.66
2018-06-05T19:27:44.248Z,101281.22
2018-06-05T19:30:12.329Z,101281.41
2018-06-05T19:32:40.392Z,101287.63
2018-06-05T19:35:08.453Z,101296.58
2018-06-05T19:37:36.503Z,101295.84
2018-06-05T19:40:04.585Z,101291.03
2018-06-05T19:42:32.632Z,101301.73
2018-06-05T19:45:00.696Z,101300.50
2018-06-05T19:47:28.779Z,101306.42
2018-06-05T19:49:56.852Z,101310.73
2018-06-05T19:52:24.916Z,101311.20
2018-06-05T19:54:52.992Z,101313.03
2018-06-05T19:57:21.065Z,101310.81
2018-06-05T19:59:49.139Z,101314.47
2018-06-05T20:02:17.233Z,101322.15
2018-06-05T20:04:45.281Z,101314.30
2018-06-05T20:07:13.352Z,101321.98
2018-06-05T20:09:42.233Z,101319.64
2018-06-05T20:12:10.324Z,101317.45
2018-06-05T20:14:38.380Z,101321.31
2018-06-05T20:17:06.459Z,101328.95
2018-06-05T20:19:34.524Z,101326.34
2018-06-05T20:22:02.628Z,101323.72
2018-06-05T20:24:30.740Z,101328.77
2018-06-05T20:26:58.849Z,101331.35
2018-06-05T20:29:26.943Z,101331.16
2018-06-05T20:31:55.081Z,101341.22
2018-06-05T20:34:23.163Z,101341.00
2018-06-05T20:36:51.293Z,101338.59
2018-06-05T20:39:19.368Z,101337.78
2018-06-05T20:41:47.478Z,101342.03
2018-06-05T20:44:15.575Z,101340.02
2018-06-05T20:46:43.681Z,101339.20
2018-06-05T20:49:11.816Z,101343.24
2018-06-05T20:51:39.974Z,101346.66
2018-06-05T20:54:08.073Z,101349.45
2018-06-05T20:56:36.171Z,101345.64
2018-06-05T20:59:04.248Z,101347.05
2018-06-05T21:01:32.363Z,101346.23
2018-06-05T21:04:00.467Z,101353.66
2018-06-05T21:06:28.559Z,101354.00
2018-06-05T21:08:56.669Z,101357.41
2018-06-05T21:11:24.764Z,101356.03
2018-06-05T21:13:52.854Z,101359.63
2018-06-05T21:16:20.966Z,101363.22
2018-06-05T21:18:49.100Z,101363.44
2018-06-05T21:21:17.208Z,101364.44
2018-06-05T21:23:45.313Z,101362.81
2018-06-05T21:26:13.429Z,101363.22
2018-06-05T21:28:41.540Z,101367.62
2018-06-05T21:31:09.680Z,101368.20
2018-06-05T21:33:37.818Z,101376.64
2018-06-05T21:36:05.916Z,101365.75
2018-06-05T21:38:34.079Z,101374.95
2018-06-05T21:41:02.169Z,101379.33
2018-06-05T21:43:30.267Z,101381.91
2018-06-05T21:45:58.374Z,101382.13
2018-06-05T21:48:26.467Z,101378.50
2018-06-05T21:50:54.599Z,101395.31
2018-06-05T21:53:22.696Z,101385.02
2018-06-05T21:55:50.784Z,101396.04
2018-06-05T21:58:18.872Z,101392.20
2018-06-05T22:00:47.006Z,101392.78
2018-06-05T22:03:15.112Z,101399.17
2018-06-05T22:05:43.196Z,101399.92
2018-06-05T22:08:11.329Z,101407.33
2018-06-05T22:10:39.408Z,101402.87
2018-06-05T22:13:07.513Z,101409.48
2018-06-05T22:15:35.612Z,101411.85
2018-06-05T22:18:03.768Z,101405.56
2018-06-05T22:20:31.844Z,101414.56
2018-06-05T22:22:59.969Z,101418.59
2018-06-05T22:25:28.053Z,101420.56
2018-06-05T22:27:56.144Z,101422.48
2018-06-05T22:30:24.280Z,101417.42
2018-06-05T22:32:52.360Z,101428.22
2018-06-05T22:35:20.440Z,101427.20
2018-06-05T22:37:48.526Z,101426.36
2018-06-05T22:40:16.609Z,101430.97
2018-06-05T22:42:44.685Z,101433.55
2018-06-05T22:45:12.772Z,101435.06
2018-06-05T22:47:40.913Z,101436.83
2018-06-05T22:50:08.993Z,101435.36
2018-06-05T22:52:37.077Z,101443.98
2018-06-05T22:55:05.136Z,101437.33
2018-06-05T22:57:33.248Z,101438.93
2018-06-05T23:00:01.347Z,101438.50
2018-06-05T23:02:29.426Z,101441.09
2018-06-05T23:04:57.508Z,101444.28
2018-06-05T23:07:25.600Z,101440.08
2018-06-05T23:09:53.673Z,101445.69
2018-06-05T23:12:21.757Z,101441.25
2018-06-05T23:14:49.868Z,101451.30
2018-06-05T23:17:17.943Z,101443.86
2018-06-05T23:19:46.026Z,101453.27
2018-06-05T23:22:14.126Z,101455.42
2018-06-05T23:24:42.201Z,101458.61
2018-06-05T23:27:10.304Z,101456.20
2018-06-05T23:29:38.433Z,101457.56
2018-06-05T23:32:06.892Z,101460.70
2018-06-05T23:34:34.972Z,101468.03
2018-06-05T23:37:03.057Z,101471.39
2018-06-05T23:39:31.128Z,101463.52
2018-06-05T23:41:59.214Z,101462.47
2018-06-05T23:44:27.334Z,101467.66
2018-06-05T23:46:55.432Z,101468.47
2018-06-05T23:49:23.512Z,101473.03
2018-06-05T23:51:55.773Z,101470.03
2018-06-05T23:54:23.848Z,101469.99
2018-06-05T23:56:51.964Z,101466.69
2018-06-05T23:59:20.060Z,101470.27
